createdAt,value
2022-12-15T00:00:20.318Z,-8.65
2022-12-15T00:03:06.011Z,-8.69
2022-12-15T00:05:51.422Z,-8.68
2022-12-15T00:08:36.802Z,-8.78
2022-12-15T00:11:22.199Z,-8.82
2022-12-15T00:14:07.713Z,-8.87
2022-12-15T00:16:52.778Z,-8.89
2022-12-15T00:19:37.890Z,-8.90
2022-12-15T00:22:23.876Z,-8.91
2022-12-15T00:25:08.987Z,-9.02
2022-12-15T00:27:54.024Z,-8.98
2022-12-15T00:30:39.424Z,-8.99
2022-12-15T00:33:31.392Z,-9.05
2022-12-15T00:36:17.765Z,-9.07
2022-12-15T00:38:44.971Z,-9.12
2022-12-15T00:41:13.476Z,-9.09
2022-12-15T00:43:40.089Z,-9.07
2022-12-15T00:46:26.699Z,-9.06
2022-12-15T00:48:53.333Z,-9.06
2022-12-15T00:51:20.456Z,-9.00
2022-12-15T00:54:06.760Z,-9.01
2022-12-15T00:56:51.999Z,-9.01
2022-12-15T00:59:36.824Z,-9.06
2022-12-15T01:02:23.077Z,-9.05
2022-12-15T01:05:08.271Z,-9.06
2022-12-15T01:07:53.788Z,-9.05
2022-12-15T01:10:38.615Z,-9.08
2022-12-15T01:13:24.590Z,-9.04
2022-12-15T01:16:10.015Z,-9.07
2022-12-15T01:18:55.553Z,-9.13
2022-12-15T01:21:25.024Z,-9.18
2022-12-15T01:23:52.297Z,-9.18
2022-12-15T01:26:19.551Z,-9.16
2022-12-15T01:28:46.144Z,-9.15
2022-12-15T01:31:12.996Z,-9.18
2022-12-15T01:33:40.053Z,-9.18
2022-12-15T01:36:07.237Z,-9.17
2022-12-15T01:38:33.870Z,-9.14
2022-12-15T01:41:07.459Z,-9.13
2022-12-15T01:43:37.473Z,-9.11
2022-12-15T01:46:05.916Z,-9.08
2022-12-15T01:49:15.422Z,-8.98
2022-12-15T01:51:48.773Z,-8.97
2022-12-15T01:54:21.018Z,-8.95
2022-12-15T01:56:52.719Z,-8.94
2022-12-15T01:59:25.068Z,-8.95
2022-12-15T02:01:51.950Z,-8.90
2022-12-15T02:04:22.890Z,-8.88
2022-12-15T02:06:50.002Z,-8.88
2022-12-15T02:09:19.331Z,-8.91
2022-12-15T02:11:46.099Z,-8.89
2022-12-15T02:14:20.434Z,-8.90
2022-12-15T02:17:08.812Z,-8.90
2022-12-15T02:20:02.421Z,-8.91
2022-12-15T02:23:10.684Z,-8.92
2022-12-15T02:25:38.363Z,-8.93
2022-12-15T02:28:08.529Z,-8.90
2022-12-15T02:30:35.097Z,-8.82
2022-12-15T02:33:04.899Z,-8.83
2022-12-15T02:35:41.033Z,-8.88
2022-12-15T02:38:09.385Z,-8.97
2022-12-15T02:40:37.002Z,-8.96
2022-12-15T02:43:06.471Z,-9.01
2022-12-15T02:45:46.189Z,-8.93
2022-12-15T02:48:27.410Z,-8.92
2022-12-15T02:50:53.941Z,-8.89
2022-12-15T02:53:46.717Z,-8.87
2022-12-15T02:56:53.515Z,-8.95
2022-12-15T02:59:38.003Z,-8.96
2022-12-15T03:02:08.924Z,-8.98
2022-12-15T03:04:35.848Z,-9.00
2022-12-15T03:07:06.299Z,-8.98
2022-12-15T03:09:33.250Z,-9.00
2022-12-15T03:12:00.596Z,-9.04
2022-12-15T03:14:27.976Z,-9.04
2022-12-15T03:16:55.588Z,-9.05
2022-12-15T03:19:22.661Z,-9.06
2022-12-15T03:21:49.390Z,-9.04
2022-12-15T03:24:15.996Z,-9.08
2022-12-15T03:26:43.867Z,-9.07
2022-12-15T03:29:10.499Z,-9.07
2022-12-15T03:31:37.151Z,-9.11
2022-12-15T03:34:03.823Z,-9.17
2022-12-15T03:36:30.380Z,-9.19
2022-12-15T03:38:57.012Z,-9.17
2022-12-15T03:41:23.602Z,-9.24
2022-12-15T03:43:50.434Z,-9.27
2022-12-15T03:46:17.251Z,-9.32
2022-12-15T03:48:44.013Z,-9.33
2022-12-15T03:51:10.673Z,-9.30
2022-12-15T03:53:37.392Z,-9.29
2022-12-15T03:56:04.411Z,-9.26
2022-12-15T03:58:31.089Z,-9.32
2022-12-15T04:00:57.792Z,-9.34
2022-12-15T04:03:24.622Z,-9.34
2022-12-15T04:05:51.408Z,-9.32
2022-12-15T04:08:18.088Z,-9.28
2022-12-15T04:10:44.688Z,-9.28
2022-12-15T04:13:11.991Z,-9.28
2022-12-15T04:15:40.232Z,-9.29
2022-12-15T04:18:10.187Z,-9.37
2022-12-15T04:20:38.167Z,-9.39
2022-12-15T04:23:07.828Z,-9.42
2022-12-15T04:25:54.319Z,-9.45
2022-12-15T04:28:39.680Z,-9.47
2022-12-15T04:31:33.633Z,-9.49
2022-12-15T04:34:22.907Z,-9.59
2022-12-15T04:37:11.177Z,-9.58
2022-12-15T04:39:59.425Z,-9.55
2022-12-15T04:42:45.859Z,-9.51
2022-12-15T04:45:34.214Z,-9.50
2022-12-15T04:48:19.601Z,-9.47
2022-12-15T04:51:04.910Z,-9.56
2022-12-15T04:53:50.005Z,-9.61
2022-12-15T04:56:35.420Z,-9.63
2022-12-15T04:59:20.919Z,-9.73
2022-12-15T05:02:06.994Z,-9.73
2022-12-15T05:04:52.664Z,-9.75
2022-12-15T05:07:38.316Z,-9.80
2022-12-15T05:10:25.147Z,-9.85
2022-12-15T05:13:10.455Z,-9.86
2022-12-15T05:15:55.723Z,-9.85
2022-12-15T05:18:40.936Z,-9.88
2022-12-15T05:21:26.770Z,-9.87
2022-12-15T05:24:11.964Z,-9.85
2022-12-15T05:26:57.283Z,-9.86
2022-12-15T05:29:42.552Z,-9.86
2022-12-15T05:32:09.333Z,-9.83
2022-12-15T05:34:37.309Z,-9.81
2022-12-15T05:37:05.242Z,-9.76
2022-12-15T05:39:31.876Z,-9.79
2022-12-15T05:41:58.743Z,-9.82
2022-12-15T05:44:26.138Z,-9.93
2022-12-15T05:46:53.173Z,-9.94
2022-12-15T05:49:20.308Z,-9.92
2022-12-15T05:51:48.391Z,-9.91
2022-12-15T05:54:18.151Z,-9.96
2022-12-15T05:56:45.935Z,-9.89
2022-12-15T05:59:13.070Z,-9.84
2022-12-15T06:01:40.295Z,-9.80
2022-12-15T06:04:11.392Z,-9.79
2022-12-15T06:06:38.839Z,-9.80
2022-12-15T06:09:05.771Z,-9.91
2022-12-15T06:11:38.695Z,-9.98
2022-12-15T06:14:05.472Z,-9.98
2022-12-15T06:16:33.199Z,-9.99
2022-12-15T06:19:02.005Z,-10.04
2022-12-15T06:21:32.102Z,-10.06
2022-12-15T06:23:59.267Z,-10.13
2022-12-15T06:26:32.075Z,-10.09
2022-12-15T06:29:02.670Z,-10.04
2022-12-15T06:31:34.082Z,-10.02
2022-12-15T06:34:04.381Z,-10.01
2022-12-15T06:36:31.480Z,-10.01
2022-12-15T06:39:04.349Z,-10.00
2022-12-15T06:41:32.031Z,-10.03
2022-12-15T06:44:00.098Z,-10.13
2022-12-15T06:46:28.855Z,-10.13
2022-12-15T06:48:59.214Z,-10.17
2022-12-15T06:51:26.771Z,-10.17
2022-12-15T06:53:56.848Z,-10.18
2022-12-15T06:56:33.648Z,-10.19
2022-12-15T06:59:03.425Z,-10.23
2022-12-15T07:01:30.714Z,-10.33
2022-12-15T07:04:00.455Z,-10.35
2022-12-15T07:06:29.636Z,-10.37
2022-12-15T07:08:59.342Z,-10.45
2022-12-15T07:11:26.170Z,-10.35
2022-12-15T07:13:54.140Z,-10.28
2022-12-15T07:16:23.468Z,-10.22
2022-12-15T07:18:50.739Z,-10.24
2022-12-15T07:21:18.043Z,-10.25
2022-12-15T07:23:57.933Z,-10.30
2022-12-15T07:26:25.587Z,-10.26
2022-12-15T07:28:54.148Z,-10.22
2022-12-15T07:31:22.045Z,-10.20
2022-12-15T07:33:49.565Z,-10.25
2022-12-15T07:36:16.623Z,-10.28
2022-12-15T07:38:50.109Z,-10.32
2022-12-15T07:41:18.766Z,-10.32
2022-12-15T07:43:46.793Z,-10.40
2022-12-15T07:46:13.947Z,-10.40
2022-12-15T07:48:43.888Z,-10.44
2022-12-15T07:51:19.795Z,-10.46
2022-12-15T07:53:50.340Z,-10.43
2022-12-15T07:56:20.355Z,-10.40
2022-12-15T07:58:51.204Z,-10.36
2022-12-15T08:01:18.119Z,-10.40
2022-12-15T08:03:48.330Z,-10.40
2022-12-15T08:06:18.607Z,-10.40
2022-12-15T08:08:50.063Z,-10.40
2022-12-15T08:11:23.452Z,-10.39
2022-12-15T08:14:10.607Z,-10.39
2022-12-15T08:16:40.987Z,-10.39
2022-12-15T08:19:12.402Z,-10.39
2022-12-15T08:21:43.761Z,-10.37
2022-12-15T08:24:10.798Z,-10.29
2022-12-15T08:26:38.549Z,-10.30
2022-12-15T08:29:40.569Z,-10.26
2022-12-15T08:31:54.919Z,-10.26
2022-12-15T08:34:22.174Z,-10.27
2022-12-15T08:36:49.280Z,-10.33
2022-12-15T08:39:16.626Z,-10.34
2022-12-15T08:41:44.030Z,-10.36
2022-12-15T08:44:10.933Z,-10.37
2022-12-15T08:46:37.848Z,-10.35
2022-12-15T08:49:04.922Z,-10.33
2022-12-15T08:51:33.324Z,-10.26
2022-12-15T08:54:01.460Z,-10.21
2022-12-15T08:56:29.441Z,-10.19
2022-12-15T08:59:02.068Z,-10.27
2022-12-15T09:01:33.171Z,-10.30
2022-12-15T09:04:01.673Z,-10.23
2022-12-15T09:06:32.289Z,-10.24
2022-12-15T09:09:02.519Z,-10.13
2022-12-15T09:11:30.532Z,-10.02
2022-12-15T09:13:58.455Z,-9.97
2022-12-15T09:16:25.696Z,-9.95
2022-12-15T09:18:55.262Z,-9.96
2022-12-15T09:21:26.181Z,-9.92
2022-12-15T09:23:55.393Z,-9.88
2022-12-15T09:26:23.617Z,-9.88
2022-12-15T09:28:51.218Z,-9.82
2022-12-15T09:31:28.673Z,-9.75
2022-12-15T09:33:58.180Z,-9.73
2022-12-15T09:36:25.851Z,-9.64
2022-12-15T09:38:52.895Z,-9.51
2022-12-15T09:41:28.492Z,-9.40
2022-12-15T09:44:04.188Z,-9.33
2022-12-15T09:46:51.043Z,-9.34
2022-12-15T09:49:23.922Z,-9.20
2022-12-15T09:52:10.445Z,-9.17
2022-12-15T09:54:38.853Z,-9.07
2022-12-15T09:57:28.776Z,-8.98
2022-12-15T10:00:22.003Z,-8.90
2022-12-15T10:03:02.485Z,-8.85
2022-12-15T10:06:23.890Z,-8.87
2022-12-15T10:09:10.175Z,-8.86
2022-12-15T10:11:51.797Z,-8.87
2022-12-15T10:14:24.427Z,-8.80
2022-12-15T10:17:06.987Z,-8.75
2022-12-15T10:19:36.662Z,-8.71
2022-12-15T10:22:03.597Z,-8.62
2022-12-15T10:25:08.058Z,-8.57
2022-12-15T10:27:40.819Z,-8.44
2022-12-15T10:30:12.796Z,-8.26
2022-12-15T10:32:57.073Z,-8.21
2022-12-15T10:35:29.732Z,-8.20
2022-12-15T10:38:00.030Z,-8.10
2022-12-15T10:40:58.854Z,-7.92
2022-12-15T10:43:30.734Z,-7.83
2022-12-15T10:46:14.533Z,-7.72
2022-12-15T10:48:43.362Z,-7.62
2022-12-15T10:51:44.509Z,-7.56
2022-12-15T10:54:16.452Z,-7.48
2022-12-15T10:56:51.075Z,-7.41
2022-12-15T10:59:37.185Z,-7.31
2022-12-15T11:02:34.393Z,-7.20
2022-12-15T11:05:02.758Z,-7.14
2022-12-15T11:07:48.248Z,-7.10
2022-12-15T11:10:48.899Z,-6.99
2022-12-15T11:13:19.110Z,-6.87
2022-12-15T11:15:51.875Z,-6.79
2022-12-15T11:18:18.512Z,-6.72
2022-12-15T11:20:52.798Z,-6.68
2022-12-15T11:23:53.084Z,-6.62
2022-12-15T11:26:45.250Z,-6.50
2022-12-15T11:29:27.219Z,-6.42
2022-12-15T11:31:56.514Z,-6.33
2022-12-15T11:34:36.675Z,-6.25
2022-12-15T11:37:34.021Z,-6.15
2022-12-15T11:40:21.443Z,-6.01
2022-12-15T11:42:54.019Z,-5.93
2022-12-15T11:45:27.465Z,-5.84
2022-12-15T11:48:12.281Z,-5.77
2022-12-15T11:50:59.013Z,-5.60
2022-12-15T11:53:41.445Z,-5.53
2022-12-15T11:56:23.931Z,-5.52
2022-12-15T11:59:09.467Z,-5.43
2022-12-15T12:02:00.668Z,-5.34
2022-12-15T12:04:48.608Z,-5.31
2022-12-15T12:07:58.020Z,-5.23
2022-12-15T12:10:44.819Z,-5.08
2022-12-15T12:13:23.299Z,-4.97
2022-12-15T12:16:09.505Z,-4.90
2022-12-15T12:18:42.466Z,-4.85
2022-12-15T12:21:39.502Z,-4.72
2022-12-15T12:24:14.475Z,-4.66
2022-12-15T12:26:56.986Z,-4.53
2022-12-15T12:29:35.975Z,-4.49
2022-12-15T12:32:24.411Z,-4.41
2022-12-15T12:35:31.600Z,-4.38
2022-12-15T12:38:04.096Z,-4.31
2022-12-15T12:41:10.502Z,-4.20
2022-12-15T12:43:50.508Z,-4.10
2022-12-15T12:46:29.753Z,-4.07
2022-12-15T12:49:04.319Z,-4.00
2022-12-15T12:51:38.507Z,-3.88
2022-12-15T12:54:37.255Z,-3.73
2022-12-15T12:57:13.268Z,-3.50
2022-12-15T12:59:51.159Z,-3.37
2022-12-15T13:02:21.578Z,-3.15
2022-12-15T13:05:22.341Z,-2.96
2022-12-15T13:08:06.829Z,-2.93
2022-12-15T13:10:40.782Z,-2.84
2022-12-15T13:13:16.340Z,-2.51
2022-12-15T13:15:46.614Z,-2.45
2022-12-15T13:18:24.252Z,-2.39
2022-12-15T13:20:55.426Z,-2.38
2022-12-15T13:23:21.991Z,-2.22
2022-12-15T13:25:57.641Z,-2.19
2022-12-15T13:28:39.099Z,-2.02
2022-12-15T13:31:19.257Z,-1.80
2022-12-15T13:33:49.664Z,-1.54
2022-12-15T13:36:38.307Z,-1.29
2022-12-15T13:39:27.462Z,-0.79
2022-12-15T13:44:54.857Z,-0.59
2022-12-15T13:47:29.774Z,-0.41
2022-12-15T13:50:22.627Z,-0.49
2022-12-15T13:53:18.957Z,-0.36
2022-12-15T13:55:52.542Z,-0.16
2022-12-15T13:58:20.428Z,-0.08
2022-12-15T14:00:58.296Z,-0.08
2022-12-15T14:03:29.254Z,-0.06
2022-12-15T14:05:58.588Z,-0.08
2022-12-15T14:08:29.490Z,-0.13
2022-12-15T14:10:59.138Z,-0.11
2022-12-15T14:13:25.679Z,-0.14
2022-12-15T14:16:03.128Z,-0.12
2022-12-15T14:18:31.288Z,-0.25
2022-12-15T14:20:59.521Z,-0.24
2022-12-15T14:23:38.638Z,-0.27
2022-12-15T14:26:07.609Z,-0.45
2022-12-15T14:28:36.755Z,-0.61
2022-12-15T14:31:16.787Z,-0.70
2022-12-15T14:33:46.895Z,-0.69
2022-12-15T14:36:20.587Z,-0.75
2022-12-15T14:39:06.651Z,-0.78
2022-12-15T14:41:34.514Z,-0.91
2022-12-15T14:44:36.632Z,-1.04
2022-12-15T14:47:07.476Z,-1.15
2022-12-15T14:49:43.712Z,-1.40
2022-12-15T14:52:27.532Z,-1.55
2022-12-15T14:54:57.903Z,-1.72
2022-12-15T14:57:43.852Z,-1.85
2022-12-15T15:00:50.928Z,-1.90
2022-12-15T15:05:59.986Z,-2.06
2022-12-15T15:08:36.249Z,-2.20
2022-12-15T15:11:44.733Z,-2.27
2022-12-15T15:14:20.566Z,-2.34
2022-12-15T15:17:00.727Z,-2.45
2022-12-15T15:19:28.051Z,-2.52
2022-12-15T15:21:54.770Z,-2.66
2022-12-15T15:24:39.632Z,-2.80
2022-12-15T15:27:32.996Z,-2.94
2022-12-15T15:30:16.968Z,-3.06
2022-12-15T15:32:58.281Z,-3.17
2022-12-15T15:35:34.174Z,-3.28
2022-12-15T15:38:31.153Z,-3.37
2022-12-15T15:41:11.696Z,-3.53
2022-12-15T15:43:38.303Z,-3.63
2022-12-15T15:46:10.509Z,-3.74
2022-12-15T15:48:41.795Z,-3.83
2022-12-15T15:51:08.426Z,-3.85
2022-12-15T15:53:35.790Z,-3.87
2022-12-15T15:56:08.199Z,-3.92
2022-12-15T15:58:36.388Z,-3.99
2022-12-15T16:01:09.546Z,-4.11
2022-12-15T16:03:39.617Z,-4.22
2022-12-15T16:06:14.194Z,-4.30
2022-12-15T16:08:40.961Z,-4.38
2022-12-15T16:11:11.152Z,-4.43
2022-12-15T16:13:37.902Z,-4.47
2022-12-15T16:16:05.647Z,-4.52
2022-12-15T16:18:32.812Z,-4.65
2022-12-15T16:20:59.756Z,-4.72
2022-12-15T16:23:28.764Z,-4.84
2022-12-15T16:25:58.456Z,-4.94
2022-12-15T16:28:28.249Z,-5.05
2022-12-15T16:30:55.650Z,-5.09
2022-12-15T16:33:24.065Z,-5.14
2022-12-15T16:35:51.349Z,-5.40
2022-12-15T16:38:25.777Z,-5.46
2022-12-15T16:40:53.013Z,-5.47
2022-12-15T16:43:24.394Z,-5.52
2022-12-15T16:45:53.155Z,-5.57
2022-12-15T16:48:20.825Z,-5.60
2022-12-15T16:50:52.138Z,-5.66
2022-12-15T16:53:27.941Z,-5.73
2022-12-15T16:55:59.608Z,-5.73
2022-12-15T16:58:27.952Z,-5.78
2022-12-15T17:00:55.167Z,-5.85
2022-12-15T17:03:25.731Z,-5.96
2022-12-15T17:05:55.587Z,-5.98
2022-12-15T17:08:50.571Z,-6.04
2022-12-15T17:11:21.640Z,-6.15
2022-12-15T17:13:51.402Z,-6.18
2022-12-15T17:16:19.702Z,-6.23
2022-12-15T17:18:46.370Z,-6.32
2022-12-15T17:21:29.253Z,-6.37
2022-12-15T17:24:00.689Z,-6.42
2022-12-15T17:26:30.730Z,-6.42
2022-12-15T17:29:01.535Z,-6.49
2022-12-15T17:31:34.877Z,-6.56
2022-12-15T17:34:30.212Z,-6.64
2022-12-15T17:36:59.365Z,-6.68
2022-12-15T17:39:27.329Z,-6.80
2022-12-15T17:42:02.730Z,-6.79
2022-12-15T17:44:35.493Z,-6.82
2022-12-15T17:47:05.511Z,-6.87
2022-12-15T17:49:36.172Z,-6.98
2022-12-15T17:52:23.205Z,-7.23
2022-12-15T17:54:51.511Z,-7.17
2022-12-15T17:57:18.406Z,-7.20
2022-12-15T17:59:45.043Z,-7.21
2022-12-15T18:02:15.115Z,-7.29
2022-12-15T18:04:42.545Z,-7.28
2022-12-15T18:07:18.736Z,-7.27
2022-12-15T18:09:46.046Z,-7.30
2022-12-15T18:12:21.824Z,-7.36
2022-12-15T18:14:48.632Z,-7.39
2022-12-15T18:17:15.563Z,-7.41
2022-12-15T18:19:42.193Z,-7.43
2022-12-15T18:22:21.086Z,-7.41
2022-12-15T18:24:49.069Z,-7.49
2022-12-15T18:27:23.839Z,-7.54
2022-12-15T18:29:50.780Z,-7.58
2022-12-15T18:32:18.058Z,-7.63
2022-12-15T18:34:45.050Z,-7.60
2022-12-15T18:37:20.188Z,-7.62
2022-12-15T18:39:47.321Z,-7.81
2022-12-15T18:42:16.054Z,-7.85
2022-12-15T18:44:48.289Z,-7.89
2022-12-15T18:47:17.198Z,-7.90
2022-12-15T18:49:43.954Z,-7.91
2022-12-15T18:52:20.002Z,-7.88
2022-12-15T18:54:48.614Z,-7.83
2022-12-15T18:57:33.662Z,-7.90
2022-12-15T19:00:07.907Z,-7.97
2022-12-15T19:02:34.660Z,-8.02
2022-12-15T19:05:01.435Z,-8.05
2022-12-15T19:07:28.119Z,-8.11
2022-12-15T19:09:55.035Z,-8.12
2022-12-15T19:12:21.831Z,-8.13
2022-12-15T19:14:50.688Z,-8.20
2022-12-15T19:17:38.354Z,-8.25
2022-12-15T19:20:31.820Z,-8.31
2022-12-15T19:22:58.494Z,-8.34
2022-12-15T19:25:29.105Z,-8.37
2022-12-15T19:27:59.342Z,-8.40
2022-12-15T19:30:29.723Z,-8.40
2022-12-15T19:32:56.969Z,-8.42
2022-12-15T19:35:24.835Z,-8.48
2022-12-15T19:37:55.153Z,-8.50
2022-12-15T19:40:28.196Z,-8.51
2022-12-15T19:42:55.642Z,-8.52
2022-12-15T19:45:26.855Z,-8.52
2022-12-15T19:47:54.251Z,-8.56
2022-12-15T19:50:29.291Z,-8.61
2022-12-15T19:53:00.908Z,-8.65
2022-12-15T19:55:33.992Z,-8.71
2022-12-15T19:58:06.568Z,-8.73
2022-12-15T20:00:33.232Z,-8.74
2022-12-15T20:02:59.993Z,-8.73
2022-12-15T20:05:26.811Z,-8.76
2022-12-15T20:07:54.713Z,-8.80
2022-12-15T20:10:29.316Z,-8.83
2022-12-15T20:12:58.653Z,-8.87
2022-12-15T20:15:26.254Z,-8.85
2022-12-15T20:17:58.923Z,-8.83
2022-12-15T20:20:27.765Z,-8.84
2022-12-15T20:22:58.910Z,-8.83
2022-12-15T20:25:37.849Z,-8.87
2022-12-15T20:28:10.351Z,-8.94
2022-12-15T20:30:37.135Z,-8.99
2022-12-15T20:33:04.773Z,-9.08
2022-12-15T20:35:34.672Z,-9.09
2022-12-15T20:38:12.763Z,-9.10
2022-12-15T20:40:39.451Z,-9.06
2022-12-15T20:43:16.308Z,-9.06
2022-12-15T20:45:44.048Z,-9.12
2022-12-15T20:48:13.700Z,-9.19
2022-12-15T20:50:48.877Z,-9.22
2022-12-15T20:53:22.733Z,-9.28
2022-12-15T20:55:50.628Z,-9.31
2022-12-15T20:58:18.275Z,-9.33
2022-12-15T21:00:46.447Z,-9.37
2022-12-15T21:03:28.863Z,-9.39
2022-12-15T21:05:57.960Z,-9.40
2022-12-15T21:08:27.504Z,-9.47
2022-12-15T21:10:56.483Z,-9.45
2022-12-15T21:13:26.539Z,-9.52
2022-12-15T21:15:54.274Z,-9.53
2022-12-15T21:21:34.168Z,-9.51
2022-12-15T21:24:02.863Z,-9.56
2022-12-15T21:26:29.515Z,-9.62
2022-12-15T21:28:59.398Z,-9.62
2022-12-15T21:31:26.723Z,-9.66
2022-12-15T21:33:53.670Z,-9.67
2022-12-15T21:36:22.374Z,-9.65
2022-12-15T21:38:51.875Z,-9.60
2022-12-15T21:41:24.684Z,-9.64
2022-12-15T21:43:51.339Z,-9.74
2022-12-15T21:46:24.636Z,-9.77
2022-12-15T21:49:14.362Z,-9.74
2022-12-15T21:52:09.416Z,-9.77
2022-12-15T21:54:36.659Z,-9.80
2022-12-15T21:57:03.345Z,-9.81
2022-12-15T21:59:31.990Z,-9.76
2022-12-15T22:02:02.401Z,-9.74
2022-12-15T22:04:34.658Z,-9.80
2022-12-15T22:07:01.660Z,-9.85
2022-12-15T22:09:28.794Z,-9.85
2022-12-15T22:11:56.563Z,-9.87
2022-12-15T22:14:33.177Z,-9.86
2022-12-15T22:17:02.050Z,-9.87
2022-12-15T22:19:28.741Z,-9.85
2022-12-15T22:21:55.408Z,-9.87
2022-12-15T22:24:22.170Z,-9.83
2022-12-15T22:26:49.012Z,-9.85
2022-12-15T22:29:21.700Z,-9.90
2022-12-15T22:31:50.165Z,-9.95
2022-12-15T22:34:23.025Z,-9.96
2022-12-15T22:36:50.838Z,-9.93
2022-12-15T22:39:18.942Z,-9.96
2022-12-15T22:41:49.981Z,-10.01
2022-12-15T22:44:21.813Z,-10.05
2022-12-15T22:46:50.220Z,-10.06
2022-12-15T22:49:23.351Z,-10.03
2022-12-15T22:51:50.087Z,-10.04
2022-12-15T22:54:28.923Z,-10.08
2022-12-15T22:57:01.099Z,-10.10
2022-12-15T22:59:35.257Z,-10.10
2022-12-15T23:02:03.061Z,-10.09
2022-12-15T23:04:30.714Z,-10.09
2022-12-15T23:06:59.274Z,-10.14
2022-12-15T23:09:26.068Z,-10.23
2022-12-15T23:11:52.744Z,-10.26
2022-12-15T23:14:44.819Z,-10.26
2022-12-15T23:17:13.005Z,-10.27
2022-12-15T23:19:44.441Z,-10.26
2022-12-15T23:22:11.276Z,-10.28
2022-12-15T23:24:37.964Z,-10.39
2022-12-15T23:27:05.349Z,-10.44
2022-12-15T23:29:32.294Z,-10.41
2022-12-15T23:31:58.900Z,-10.38
2022-12-15T23:34:25.674Z,-10.35
2022-12-15T23:36:52.327Z,-10.36
2022-12-15T23:39:19.059Z,-10.37
2022-12-15T23:41:45.676Z,-10.37
2022-12-15T23:44:12.519Z,-10.41
2022-12-15T23:46:39.228Z,-10.43
2022-12-15T23:49:06.902Z,-10.46
2022-12-15T23:51:33.510Z,-10.50
2022-12-15T23:54:00.128Z,-10.50
2022-12-15T23:56:26.836Z,-10.48
2022-12-15T23:58:58.837Z,-10.46
